createdAt,value
2023-05-21T00:01:32.324Z,12.99
2023-05-21T00:06:38.073Z,13.00
2023-05-21T00:11:39.668Z,13.01
2023-05-21T00:16:41.313Z,12.98
2023-05-21T00:21:45.890Z,12.97
2023-05-21T00:26:47.553Z,12.94
2023-05-21T00:31:51.179Z,12.86
2023-05-21T00:36:53.769Z,12.76
2023-05-21T00:41:56.958Z,12.66
2023-05-21T00:46:58.930Z,12.66
2023-05-21T00:52:01.703Z,12.64
2023-05-21T00:57:04.194Z,12.63
2023-05-21T01:02:06.889Z,12.59
2023-05-21T01:07:10.014Z,12.55
2023-05-21T01:12:13.294Z,12.52
2023-05-21T01:17:15.996Z,12.49
2023-05-21T01:22:19.414Z,12.47
2023-05-21T01:27:21.667Z,12.44
2023-05-21T01:32:45.275Z,12.41
2023-05-21T01:38:04.617Z,12.38
2023-05-21T01:43:07.795Z,12.34
2023-05-21T01:48:09.574Z,12.30
2023-05-21T01:53:11.348Z,12.25
2023-05-21T01:58:12.951Z,12.20
2023-05-21T02:03:17.567Z,12.14
2023-05-21T02:08:20.166Z,12.04
2023-05-21T02:13:24.993Z,11.90
2023-05-21T02:18:29.346Z,11.74
2023-05-21T02:23:30.936Z,11.62
2023-05-21T02:28:32.895Z,11.52
2023-05-21T02:33:34.452Z,11.40
2023-05-21T02:38:38.378Z,11.31
2023-05-21T02:43:40.175Z,11.26
2023-05-21T02:48:41.688Z,11.24
2023-05-21T02:53:43.268Z,11.27
2023-05-21T02:58:44.806Z,11.28
2023-05-21T03:03:46.500Z,11.49
2023-05-21T03:08:48.054Z,12.41
2023-05-21T03:13:49.636Z,13.21
2023-05-21T03:18:51.472Z,14.58
2023-05-21T03:23:53.095Z,15.90
2023-05-21T03:28:55.043Z,17.19
2023-05-21T03:33:56.583Z,18.28
2023-05-21T03:38:58.120Z,18.59
2023-05-21T03:43:59.621Z,17.19
2023-05-21T03:49:01.159Z,15.96
2023-05-21T03:54:02.700Z,15.26
2023-05-21T03:59:04.307Z,14.76
2023-05-21T04:04:06.233Z,14.55
2023-05-21T04:09:08.215Z,14.36
2023-05-21T04:14:09.761Z,14.28
2023-05-21T04:19:11.343Z,14.23
2023-05-21T04:24:13.037Z,14.16
2023-05-21T04:29:18.179Z,14.16
2023-05-21T04:34:19.979Z,14.21
2023-05-21T04:39:21.724Z,14.26
2023-05-21T04:44:23.410Z,14.38
2023-05-21T04:49:25.676Z,14.46
2023-05-21T04:54:27.793Z,14.53
2023-05-21T04:59:29.527Z,14.72
2023-05-21T05:04:31.911Z,14.84
2023-05-21T05:09:33.509Z,14.95
2023-05-21T05:14:35.084Z,15.02
2023-05-21T05:19:36.812Z,15.20
2023-05-21T05:24:38.443Z,15.30
2023-05-21T05:29:39.947Z,15.38
2023-05-21T05:34:42.796Z,15.51
2023-05-21T05:39:44.464Z,15.64
2023-05-21T05:44:45.995Z,15.82
2023-05-21T05:49:47.897Z,16.01
2023-05-21T05:54:49.426Z,16.18
2023-05-21T05:59:51.016Z,16.26
2023-05-21T06:04:52.557Z,16.40
2023-05-21T06:09:54.083Z,16.56
2023-05-21T06:14:55.901Z,16.67
2023-05-21T06:19:57.775Z,16.75
2023-05-21T06:24:59.407Z,16.91
2023-05-21T06:30:00.968Z,17.07
2023-05-21T06:35:02.532Z,17.16
2023-05-21T06:40:04.892Z,17.23
2023-05-21T06:45:07.197Z,17.37
2023-05-21T06:50:09.359Z,17.48
2023-05-21T06:55:11.064Z,17.54
2023-05-21T07:00:14.045Z,17.54
2023-05-21T07:05:15.738Z,17.64
2023-05-21T07:10:17.377Z,17.78
2023-05-21T07:15:18.999Z,17.83
2023-05-21T07:20:20.719Z,17.86
2023-05-21T07:25:22.272Z,17.94
2023-05-21T07:30:23.974Z,18.05
2023-05-21T07:35:25.937Z,18.15
2023-05-21T07:40:27.456Z,18.22
2023-05-21T07:45:29.000Z,18.26
2023-05-21T07:50:31.416Z,18.39
2023-05-21T07:55:32.981Z,18.48
2023-05-21T08:00:44.418Z,18.63
2023-05-21T08:05:50.870Z,18.73
2023-05-21T08:10:52.661Z,18.87
2023-05-21T08:21:09.999Z,19.06
2023-05-21T08:26:11.960Z,19.18
2023-05-21T08:31:13.568Z,19.31
2023-05-21T08:36:15.085Z,19.38
2023-05-21T08:41:18.064Z,19.50
2023-05-21T08:46:23.806Z,19.65
2023-05-21T08:51:27.029Z,19.72
2023-05-21T08:56:31.404Z,19.83
2023-05-21T09:01:33.550Z,19.94
2023-05-21T09:06:35.735Z,20.04
2023-05-21T09:11:37.694Z,20.14
2023-05-21T09:16:39.559Z,20.18
2023-05-21T09:21:42.275Z,20.24
2023-05-21T09:26:44.205Z,20.35
2023-05-21T09:31:46.061Z,20.43
2023-05-21T09:36:49.431Z,20.48
2023-05-21T09:41:51.000Z,20.60
2023-05-21T09:46:57.933Z,20.66
2023-05-21T09:51:59.924Z,20.71
2023-05-21T09:57:04.349Z,20.76
2023-05-21T10:02:19.153Z,20.83
2023-05-21T10:07:26.293Z,20.92
2023-05-21T10:12:31.128Z,20.94
2023-05-21T10:17:33.146Z,21.03
2023-05-21T10:22:35.761Z,21.06
2023-05-21T10:27:37.664Z,21.09
2023-05-21T10:32:41.592Z,21.14
2023-05-21T10:37:46.684Z,21.16
2023-05-21T10:43:07.104Z,21.23
2023-05-21T10:48:26.173Z,21.29
2023-05-21T10:53:55.953Z,21.34
2023-05-21T10:59:22.328Z,21.35
2023-05-21T11:04:27.357Z,21.42
2023-05-21T11:09:28.876Z,21.54
2023-05-21T11:14:39.582Z,21.60
2023-05-21T11:19:43.812Z,21.64
2023-05-21T11:24:45.532Z,21.72
2023-05-21T11:29:47.456Z,21.79
2023-05-21T11:34:49.093Z,21.79
2023-05-21T11:39:51.826Z,21.87
2023-05-21T11:44:53.562Z,21.89
2023-05-21T11:49:57.231Z,21.93
2023-05-21T11:55:00.015Z,22.00
2023-05-21T12:00:11.871Z,22.06
2023-05-21T12:05:13.491Z,22.17
2023-05-21T12:10:15.014Z,22.24
2023-05-21T12:15:18.250Z,22.33
2023-05-21T12:20:20.093Z,22.45
2023-05-21T12:25:22.386Z,22.54
2023-05-21T12:30:25.801Z,22.63
2023-05-21T12:35:27.540Z,22.65
2023-05-21T12:40:40.699Z,22.74
2023-05-21T12:45:43.480Z,22.79
2023-05-21T12:50:45.576Z,23.05
2023-05-21T12:55:47.260Z,23.22
2023-05-21T13:00:49.368Z,23.36
2023-05-21T13:05:58.037Z,23.43
2023-05-21T13:10:59.714Z,23.36
2023-05-21T13:16:02.051Z,23.33
2023-05-21T13:21:03.669Z,23.54
2023-05-21T13:26:05.299Z,23.63
2023-05-21T13:31:06.806Z,23.68
2023-05-21T13:36:08.501Z,23.71
2023-05-21T13:41:10.085Z,23.69
2023-05-21T13:46:11.835Z,23.57
2023-05-21T13:51:19.827Z,23.53
2023-05-21T13:56:27.456Z,23.44
2023-05-21T14:01:29.243Z,23.34
2023-05-21T14:06:33.890Z,23.67
2023-05-21T14:11:35.844Z,23.77
2023-05-21T14:16:37.473Z,23.81
2023-05-21T14:21:39.156Z,24.01
2023-05-21T14:26:41.394Z,24.02
2023-05-21T14:31:42.995Z,23.91
2023-05-21T14:36:44.702Z,24.05
2023-05-21T14:41:46.317Z,24.13
2023-05-21T14:46:48.112Z,24.26
2023-05-21T14:51:49.646Z,24.34
2023-05-21T14:56:51.221Z,24.31
2023-05-21T15:01:52.799Z,24.25
2023-05-21T15:06:54.523Z,24.24
2023-05-21T15:11:56.065Z,24.28
2023-05-21T15:16:57.635Z,24.35
2023-05-21T15:21:59.342Z,24.22
2023-05-21T15:27:00.857Z,24.21
2023-05-21T15:32:05.226Z,24.29
2023-05-21T15:37:06.839Z,24.35
2023-05-21T15:42:08.776Z,24.38
2023-05-21T15:47:10.541Z,24.54
2023-05-21T15:52:12.223Z,24.70
2023-05-21T15:57:13.831Z,24.76
2023-05-21T16:02:15.415Z,24.78
2023-05-21T16:07:17.416Z,24.74
2023-05-21T16:12:19.097Z,24.53
2023-05-21T16:17:20.889Z,24.32
2023-05-21T16:22:23.938Z,24.12
2023-05-21T16:27:25.630Z,23.94
2023-05-21T16:32:28.499Z,23.72
2023-05-21T16:37:30.227Z,23.59
2023-05-21T16:42:31.745Z,23.44
2023-05-21T16:47:33.322Z,23.32
2023-05-21T16:52:35.038Z,23.25
2023-05-21T16:57:36.920Z,23.11
2023-05-21T17:02:38.790Z,23.03
2023-05-21T17:07:40.378Z,22.89
2023-05-21T17:12:41.981Z,22.73
2023-05-21T17:17:43.660Z,22.47
2023-05-21T17:22:45.284Z,22.13
2023-05-21T17:27:47.020Z,21.73
2023-05-21T17:32:48.608Z,21.39
2023-05-21T17:37:50.290Z,21.12
2023-05-21T17:42:52.672Z,20.87
2023-05-21T17:47:55.257Z,20.63
2023-05-21T17:52:57.843Z,20.45
2023-05-21T17:57:59.521Z,20.23
2023-05-21T18:03:01.199Z,20.01
2023-05-21T18:08:02.986Z,19.78
2023-05-21T18:13:04.552Z,19.60
2023-05-21T18:18:06.214Z,19.41
2023-05-21T18:23:07.779Z,19.21
2023-05-21T18:28:10.025Z,19.00
2023-05-21T18:33:12.489Z,18.80
2023-05-21T18:38:14.118Z,18.60
2023-05-21T18:43:17.755Z,18.40
2023-05-21T18:48:19.428Z,18.21
2023-05-21T18:53:20.988Z,18.06
2023-05-21T18:58:23.773Z,17.90
2023-05-21T19:03:26.138Z,17.74
2023-05-21T19:08:27.721Z,17.55
2023-05-21T19:13:29.586Z,17.37
2023-05-21T19:18:32.473Z,17.18
2023-05-21T19:23:44.665Z,16.97
2023-05-21T19:28:54.615Z,16.76
2023-05-21T19:33:56.604Z,16.58
2023-05-21T19:38:58.839Z,16.40
2023-05-21T19:44:01.003Z,16.21
2023-05-21T19:49:02.541Z,16.06
2023-05-21T19:54:04.171Z,16.00
2023-05-21T19:59:05.758Z,16.00
2023-05-21T20:04:07.341Z,15.94
2023-05-21T20:09:10.812Z,15.84
2023-05-21T20:14:13.585Z,15.72
2023-05-21T20:19:15.306Z,15.59
2023-05-21T20:24:17.137Z,15.44
2023-05-21T20:29:18.666Z,15.29
2023-05-21T20:34:20.912Z,15.15
2023-05-21T20:39:22.964Z,15.00
2023-05-21T20:44:26.397Z,14.88
2023-05-21T20:49:28.566Z,14.76
2023-05-21T20:54:35.467Z,14.75
2023-05-21T20:59:37.030Z,14.73
2023-05-21T21:04:39.738Z,14.72
2023-05-21T21:09:41.511Z,14.81
2023-05-21T21:14:43.157Z,14.84
2023-05-21T21:19:44.725Z,14.82
2023-05-21T21:24:47.330Z,14.77
2023-05-21T21:29:48.948Z,14.74
2023-05-21T21:34:50.670Z,14.65
2023-05-21T21:39:52.725Z,14.58
2023-05-21T21:44:54.308Z,14.52
2023-05-21T21:49:56.096Z,14.42
2023-05-21T21:54:58.101Z,14.31
2023-05-21T22:00:00.125Z,14.20
2023-05-21T22:05:01.881Z,14.14
2023-05-21T22:10:03.633Z,14.08
2023-05-21T22:15:07.769Z,14.01
2023-05-21T22:20:10.688Z,13.91
2023-05-21T22:25:12.385Z,13.76
2023-05-21T22:30:13.984Z,13.64
2023-05-21T22:35:15.623Z,13.58
2023-05-21T22:40:17.182Z,13.54
2023-05-21T22:45:19.331Z,13.49
2023-05-21T22:50:21.090Z,13.41
2023-05-21T22:55:22.651Z,13.34
2023-05-21T23:00:24.295Z,13.29
2023-05-21T23:05:26.127Z,13.22
2023-05-21T23:10:27.738Z,13.17
2023-05-21T23:15:32.115Z,13.11
2023-05-21T23:20:33.801Z,13.03
2023-05-21T23:25:36.239Z,12.93
2023-05-21T23:30:41.000Z,12.88
2023-05-21T23:35:42.802Z,12.80
2023-05-21T23:40:44.473Z,12.73
2023-05-21T23:45:46.176Z,12.63
2023-05-21T23:50:47.779Z,12.49
2023-05-21T23:55:49.331Z,12.44
